sensor_id;sensor_type;location;lat;lon;timestamp;temperature;humidity
21891;DHT22;11110;52.386;16.940;2024-02-23T00:01:31;23.40;45.60
21891;DHT22;11110;52.386;16.940;2024-02-23T00:03:59;23.30;45.60
21891;DHT22;11110;52.386;16.940;2024-02-23T00:06:29;23.40;45.60
21891;DHT22;11110;52.386;16.940;2024-02-23T00:08:58;23.40;45.70
21891;DHT22;11110;52.386;16.940;2024-02-23T00:11:26;23.30;45.60
21891;DHT22;11110;52.386;16.940;2024-02-23T00:13:56;23.30;45.60
21891;DHT22;11110;52.386;16.940;2024-02-23T00:16:25;23.30;45.70
21891;DHT22;11110;52.386;16.940;2024-02-23T00:18:55;23.40;45.80
21891;DHT22;11110;52.386;16.940;2024-02-23T00:21:23;23.40;45.70
21891;DHT22;11110;52.386;16.940;2024-02-23T00:23:52;23.40;45.80
21891;DHT22;11110;52.386;16.940;2024-02-23T00:26:20;23.40;45.80
21891;DHT22;11110;52.386;16.940;2024-02-23T00:28:49;23.50;45.70
21891;DHT22;11110;52.386;16.940;2024-02-23T00:31:18;23.50;45.70
21891;DHT22;11110;52.386;16.940;2024-02-23T00:33:46;23.50;45.60
21891;DHT22;11110;52.386;16.940;2024-02-23T00:36:16;23.60;45.60
21891;DHT22;11110;52.386;16.940;2024-02-23T00:38:45;23.60;45.60
21891;DHT22;11110;52.386;16.940;2024-02-23T00:41:13;23.60;45.60
21891;DHT22;11110;52.386;16.940;2024-02-23T00:43:42;23.60;45.60
21891;DHT22;11110;52.386;16.940;2024-02-23T00:46:10;23.60;45.60
21891;DHT22;11110;52.386;16.940;2024-02-23T00:48:42;23.70;45.60
21891;DHT22;11110;52.386;16.940;2024-02-23T00:51:10;23.70;45.50
21891;DHT22;11110;52.386;16.940;2024-02-23T00:53:40;23.70;45.60
21891;DHT22;11110;52.386;16.940;2024-02-23T00:56:08;23.80;45.60
21891;DHT22;11110;52.386;16.940;2024-02-23T00:58:37;23.70;45.60
21891;DHT22;11110;52.386;16.940;2024-02-23T01:01:06;23.80;45.60
21891;DHT22;11110;52.386;16.940;2024-02-23T01:03:35;23.80;45.60
21891;DHT22;11110;52.386;16.940;2024-02-23T01:06:04;23.80;45.60
21891;DHT22;11110;52.386;16.940;2024-02-23T01:08:33;23.90;45.60
21891;DHT22;11110;52.386;16.940;2024-02-23T01:11:04;23.90;45.60
21891;DHT22;11110;52.386;16.940;2024-02-23T01:13:32;23.90;45.50
21891;DHT22;11110;52.386;16.940;2024-02-23T01:16:01;23.90;45.60
21891;DHT22;11110;52.386;16.940;2024-02-23T01:18:30;23.90;45.60
21891;DHT22;11110;52.386;16.940;2024-02-23T01:20:58;23.90;45.60
21891;DHT22;11110;52.386;16.940;2024-02-23T01:23:27;23.90;45.60
21891;DHT22;11110;52.386;16.940;2024-02-23T01:25:56;23.90;45.60
21891;DHT22;11110;52.386;16.940;2024-02-23T01:28:27;23.90;46.40
21891;DHT22;11110;52.386;16.940;2024-02-23T01:30:55;23.90;45.70
21891;DHT22;11110;52.386;16.940;2024-02-23T01:33:24;24.00;45.80
21891;DHT22;11110;52.386;16.940;2024-02-23T01:35:53;24.00;45.70
21891;DHT22;11110;52.386;16.940;2024-02-23T01:38:21;24.00;45.70
21891;DHT22;11110;52.386;16.940;2024-02-23T01:40:52;24.00;45.70
21891;DHT22;11110;52.386;16.940;2024-02-23T01:43:20;24.00;45.70
21891;DHT22;11110;52.386;16.940;2024-02-23T01:45:51;24.10;45.70
21891;DHT22;11110;52.386;16.940;2024-02-23T01:48:20;24.10;45.70
21891;DHT22;11110;52.386;16.940;2024-02-23T01:50:49;24.10;45.70
21891;DHT22;11110;52.386;16.940;2024-02-23T01:53:18;24.10;45.60
21891;DHT22;11110;52.386;16.940;2024-02-23T01:55:47;24.10;45.60
21891;DHT22;11110;52.386;16.940;2024-02-23T01:58:17;24.10;45.60
21891;DHT22;11110;52.386;16.940;2024-02-23T02:00:45;24.20;45.70
21891;DHT22;11110;52.386;16.940;2024-02-23T02:03:16;24.20;45.60
21891;DHT22;11110;52.386;16.940;2024-02-23T02:05:44;24.10;45.60
21891;DHT22;11110;52.386;16.940;2024-02-23T02:08:13;24.20;45.70
21891;DHT22;11110;52.386;16.940;2024-02-23T02:10:42;24.20;45.70
21891;DHT22;11110;52.386;16.940;2024-02-23T02:13:11;24.20;45.70
21891;DHT22;11110;52.386;16.940;2024-02-23T02:15:40;24.20;45.70
21891;DHT22;11110;52.386;16.940;2024-02-23T02:18:10;24.20;45.60
21891;DHT22;11110;52.386;16.940;2024-02-23T02:20:50;24.20;45.60
21891;DHT22;11110;52.386;16.940;2024-02-23T02:23:19;24.30;45.60
21891;DHT22;11110;52.386;16.940;2024-02-23T02:25:52;24.30;45.60
21891;DHT22;11110;52.386;16.940;2024-02-23T02:28:21;24.30;45.60
21891;DHT22;11110;52.386;16.940;2024-02-23T02:30:51;24.30;45.60
21891;DHT22;11110;52.386;16.940;2024-02-23T02:33:20;24.30;45.50
21891;DHT22;11110;52.386;16.940;2024-02-23T02:35:50;24.30;45.50
21891;DHT22;11110;52.386;16.940;2024-02-23T02:38:19;24.30;45.40
21891;DHT22;11110;52.386;16.940;2024-02-23T02:40:47;24.30;45.40
21891;DHT22;11110;52.386;16.940;2024-02-23T02:43:16;24.30;45.50
21891;DHT22;11110;52.386;16.940;2024-02-23T02:45:45;24.30;45.40
21891;DHT22;11110;52.386;16.940;2024-02-23T02:48:14;24.30;45.50
21891;DHT22;11110;52.386;16.940;2024-02-23T02:50:42;24.30;45.50
21891;DHT22;11110;52.386;16.940;2024-02-23T02:53:12;24.30;45.60
21891;DHT22;11110;52.386;16.940;2024-02-23T02:55:42;24.30;45.60
21891;DHT22;11110;52.386;16.940;2024-02-23T02:58:11;24.30;45.60
21891;DHT22;11110;52.386;16.940;2024-02-23T03:00:40;24.30;45.70
21891;DHT22;11110;52.386;16.940;2024-02-23T03:03:08;24.20;45.70
21891;DHT22;11110;52.386;16.940;2024-02-23T03:05:37;24.20;45.80
21891;DHT22;11110;52.386;16.940;2024-02-23T03:08:06;24.20;45.80
21891;DHT22;11110;52.386;16.940;2024-02-23T03:10:36;24.20;45.80
21891;DHT22;11110;52.386;16.940;2024-02-23T03:13:05;24.30;45.80
21891;DHT22;11110;52.386;16.940;2024-02-23T03:15:33;24.30;45.70
21891;DHT22;11110;52.386;16.940;2024-02-23T03:18:02;24.30;45.80
21891;DHT22;11110;52.386;16.940;2024-02-23T03:20:31;24.30;45.80
21891;DHT22;11110;52.386;16.940;2024-02-23T03:22:59;24.30;45.70
21891;DHT22;11110;52.386;16.940;2024-02-23T03:25:30;24.30;45.70
21891;DHT22;11110;52.386;16.940;2024-02-23T03:28:00;24.30;45.70
21891;DHT22;11110;52.386;16.940;2024-02-23T03:30:29;24.30;45.70
21891;DHT22;11110;52.386;16.940;2024-02-23T03:33:01;24.40;45.70
21891;DHT22;11110;52.386;16.940;2024-02-23T03:35:29;24.30;46.20
21891;DHT22;11110;52.386;16.940;2024-02-23T03:37:58;24.40;45.70
21891;DHT22;11110;52.386;16.940;2024-02-23T03:40:26;24.40;45.60
21891;DHT22;11110;52.386;16.940;2024-02-23T03:42:55;24.40;45.60
21891;DHT22;11110;52.386;16.940;2024-02-23T03:45:25;24.40;45.60
21891;DHT22;11110;52.386;16.940;2024-02-23T03:47:54;24.40;45.60
21891;DHT22;11110;52.386;16.940;2024-02-23T03:50:22;24.40;45.70
21891;DHT22;11110;52.386;16.940;2024-02-23T03:52:51;24.40;45.60
21891;DHT22;11110;52.386;16.940;2024-02-23T03:55:19;24.40;45.60
21891;DHT22;11110;52.386;16.940;2024-02-23T03:57:49;24.40;45.60
21891;DHT22;11110;52.386;16.940;2024-02-23T04:00:17;24.40;45.50
21891;DHT22;11110;52.386;16.940;2024-02-23T04:02:49;24.40;45.50
21891;DHT22;11110;52.386;16.940;2024-02-23T04:05:17;24.50;45.50
21891;DHT22;11110;52.386;16.940;2024-02-23T04:07:46;24.50;45.60
21891;DHT22;11110;52.386;16.940;2024-02-23T04:10:15;24.50;45.50
21891;DHT22;11110;52.386;16.940;2024-02-23T04:12:45;24.50;45.50
21891;DHT22;11110;52.386;16.940;2024-02-23T04:15:14;24.50;45.40
21891;DHT22;11110;52.386;16.940;2024-02-23T04:17:42;24.50;45.40
21891;DHT22;11110;52.386;16.940;2024-02-23T04:20:12;24.50;45.40
21891;DHT22;11110;52.386;16.940;2024-02-23T04:22:41;24.50;45.30
21891;DHT22;11110;52.386;16.940;2024-02-23T04:25:10;24.50;45.30
21891;DHT22;11110;52.386;16.940;2024-02-23T04:27:38;24.50;45.40
21891;DHT22;11110;52.386;16.940;2024-02-23T04:30:07;24.50;45.40
21891;DHT22;11110;52.386;16.940;2024-02-23T04:32:36;24.50;45.30
21891;DHT22;11110;52.386;16.940;2024-02-23T04:35:05;24.50;45.30
21891;DHT22;11110;52.386;16.940;2024-02-23T04:37:36;24.60;45.30
21891;DHT22;11110;52.386;16.940;2024-02-23T04:40:05;24.50;45.30
21891;DHT22;11110;52.386;16.940;2024-02-23T04:42:34;24.50;45.30
21891;DHT22;11110;52.386;16.940;2024-02-23T04:45:03;24.50;45.30
21891;DHT22;11110;52.386;16.940;2024-02-23T04:47:31;24.50;45.30
21891;DHT22;11110;52.386;16.940;2024-02-23T04:50:00;24.50;45.30
21891;DHT22;11110;52.386;16.940;2024-02-23T04:52:30;24.60;45.30
21891;DHT22;11110;52.386;16.940;2024-02-23T04:55:00;24.60;45.30
21891;DHT22;11110;52.386;16.940;2024-02-23T04:57:29;24.60;45.20
21891;DHT22;11110;52.386;16.940;2024-02-23T04:59:58;24.60;45.20
21891;DHT22;11110;52.386;16.940;2024-02-23T05:02:26;24.60;45.20
21891;DHT22;11110;52.386;16.940;2024-02-23T05:05:01;24.60;45.10
21891;DHT22;11110;52.386;16.940;2024-02-23T05:07:32;24.70;45.20
21891;DHT22;11110;52.386;16.940;2024-02-23T05:10:02;24.70;45.10
21891;DHT22;11110;52.386;16.940;2024-02-23T05:12:31;24.70;45.80
21891;DHT22;11110;52.386;16.940;2024-02-23T05:15:00;24.70;45.10
21891;DHT22;11110;52.386;16.940;2024-02-23T05:17:28;24.70;45.00
21891;DHT22;11110;52.386;16.940;2024-02-23T05:19:58;24.60;45.00
21891;DHT22;11110;52.386;16.940;2024-02-23T05:22:27;24.70;45.10
21891;DHT22;11110;52.386;16.940;2024-02-23T05:24:55;24.70;45.10
21891;DHT22;11110;52.386;16.940;2024-02-23T05:27:25;24.70;45.00
21891;DHT22;11110;52.386;16.940;2024-02-23T05:29:56;24.70;44.90
21891;DHT22;11110;52.386;16.940;2024-02-23T05:32:25;24.70;44.90
21891;DHT22;11110;52.386;16.940;2024-02-23T05:34:53;24.80;44.90
21891;DHT22;11110;52.386;16.940;2024-02-23T05:37:24;24.70;44.80
21891;DHT22;11110;52.386;16.940;2024-02-23T05:39:54;24.70;44.80
21891;DHT22;11110;52.386;16.940;2024-02-23T05:42:22;24.80;44.80
21891;DHT22;11110;52.386;16.940;2024-02-23T05:44:52;24.80;44.80
21891;DHT22;11110;52.386;16.940;2024-02-23T05:47:21;24.80;44.70
21891;DHT22;11110;52.386;16.940;2024-02-23T05:49:50;24.80;44.70
21891;DHT22;11110;52.386;16.940;2024-02-23T05:52:19;24.80;44.40
21891;DHT22;11110;52.386;16.940;2024-02-23T05:54:47;24.90;44.30
21891;DHT22;11110;52.386;16.940;2024-02-23T05:57:19;24.80;44.20
21891;DHT22;11110;52.386;16.940;2024-02-23T05:59:47;24.80;43.80
21891;DHT22;11110;52.386;16.940;2024-02-23T06:02:17;24.80;43.30
21891;DHT22;11110;52.386;16.940;2024-02-23T06:04:46;24.70;43.60
21891;DHT22;11110;52.386;16.940;2024-02-23T06:07:15;24.70;43.80
21891;DHT22;11110;52.386;16.940;2024-02-23T06:09:43;24.70;44.10
21891;DHT22;11110;52.386;16.940;2024-02-23T06:12:12;24.70;44.10
21891;DHT22;11110;52.386;16.940;2024-02-23T06:14:40;24.80;44.30
21891;DHT22;11110;52.386;16.940;2024-02-23T06:17:09;24.80;44.30
21891;DHT22;11110;52.386;16.940;2024-02-23T06:19:39;24.80;44.40
21891;DHT22;11110;52.386;16.940;2024-02-23T06:22:07;24.80;44.40
21891;DHT22;11110;52.386;16.940;2024-02-23T06:24:37;24.80;44.40
21891;DHT22;11110;52.386;16.940;2024-02-23T06:27:05;24.80;44.40
21891;DHT22;11110;52.386;16.940;2024-02-23T06:29:35;24.90;44.40
21891;DHT22;11110;52.386;16.940;2024-02-23T06:32:05;24.90;44.10
21891;DHT22;11110;52.386;16.940;2024-02-23T06:34:33;24.90;44.00
21891;DHT22;11110;52.386;16.940;2024-02-23T06:37:04;24.90;43.90
21891;DHT22;11110;52.386;16.940;2024-02-23T06:39:32;24.90;43.80
21891;DHT22;11110;52.386;16.940;2024-02-23T06:42:01;25.00;43.60
21891;DHT22;11110;52.386;16.940;2024-02-23T06:44:31;25.00;43.30
21891;DHT22;11110;52.386;16.940;2024-02-23T06:47:00;25.00;42.80
21891;DHT22;11110;52.386;16.940;2024-02-23T06:49:28;24.90;41.80
21891;DHT22;11110;52.386;16.940;2024-02-23T06:51:57;24.80;41.40
21891;DHT22;11110;52.386;16.940;2024-02-23T06:54:26;24.80;40.10
21891;DHT22;11110;52.386;16.940;2024-02-23T06:56:56;24.70;39.80
21891;DHT22;11110;52.386;16.940;2024-02-23T06:59:24;24.70;40.20
21891;DHT22;11110;52.386;16.940;2024-02-23T07:01:54;24.60;39.30
21891;DHT22;11110;52.386;16.940;2024-02-23T07:04:22;24.50;39.10
21891;DHT22;11110;52.386;16.940;2024-02-23T07:06:51;24.50;38.80
21891;DHT22;11110;52.386;16.940;2024-02-23T07:09:19;24.50;38.00
21891;DHT22;11110;52.386;16.940;2024-02-23T07:11:49;24.40;38.10
21891;DHT22;11110;52.386;16.940;2024-02-23T07:14:18;24.50;38.00
21891;DHT22;11110;52.386;16.940;2024-02-23T07:16:49;24.50;37.50
21891;DHT22;11110;52.386;16.940;2024-02-23T07:19:18;24.50;37.30
21891;DHT22;11110;52.386;16.940;2024-02-23T07:21:47;24.40;37.60
21891;DHT22;11110;52.386;16.940;2024-02-23T07:24:16;24.40;37.50
21891;DHT22;11110;52.386;16.940;2024-02-23T07:26:45;24.40;37.40
21891;DHT22;11110;52.386;16.940;2024-02-23T07:29:14;24.50;37.60
21891;DHT22;11110;52.386;16.940;2024-02-23T07:31:45;24.50;37.70
21891;DHT22;11110;52.386;16.940;2024-02-23T07:34:14;24.50;37.40
21891;DHT22;11110;52.386;16.940;2024-02-23T07:36:42;24.60;37.30
21891;DHT22;11110;52.386;16.940;2024-02-23T07:39:10;24.60;37.30
21891;DHT22;11110;52.386;16.940;2024-02-23T07:41:39;24.50;37.40
21891;DHT22;11110;52.386;16.940;2024-02-23T07:44:08;24.50;37.20
21891;DHT22;11110;52.386;16.940;2024-02-23T07:46:38;24.50;37.40
21891;DHT22;11110;52.386;16.940;2024-02-23T07:49:06;24.50;37.70
21891;DHT22;11110;52.386;16.940;2024-02-23T07:51:35;24.50;37.80
21891;DHT22;11110;52.386;16.940;2024-02-23T07:54:03;24.60;37.70
21891;DHT22;11110;52.386;16.940;2024-02-23T07:56:32;24.60;37.40
21891;DHT22;11110;52.386;16.940;2024-02-23T07:59:01;24.50;37.30
21891;DHT22;11110;52.386;16.940;2024-02-23T08:01:30;24.50;37.30
21891;DHT22;11110;52.386;16.940;2024-02-23T08:04:00;24.50;37.40
21891;DHT22;11110;52.386;16.940;2024-02-23T08:06:29;24.50;37.20
21891;DHT22;11110;52.386;16.940;2024-02-23T08:08:57;24.50;37.30
21891;DHT22;11110;52.386;16.940;2024-02-23T08:11:26;24.40;37.20
21891;DHT22;11110;52.386;16.940;2024-02-23T08:13:55;24.50;37.00
21891;DHT22;11110;52.386;16.940;2024-02-23T08:16:23;24.40;37.10
21891;DHT22;11110;52.386;16.940;2024-02-23T08:18:51;24.40;37.30
21891;DHT22;11110;52.386;16.940;2024-02-23T08:21:21;24.40;37.20
21891;DHT22;11110;52.386;16.940;2024-02-23T08:23:50;24.40;37.20
21891;DHT22;11110;52.386;16.940;2024-02-23T08:26:18;24.40;36.90
21891;DHT22;11110;52.386;16.940;2024-02-23T08:28:47;24.50;36.70
21891;DHT22;11110;52.386;16.940;2024-02-23T08:31:15;24.40;36.80
21891;DHT22;11110;52.386;16.940;2024-02-23T08:33:44;24.40;36.90
21891;DHT22;11110;52.386;16.940;2024-02-23T08:36:14;24.40;36.90
21891;DHT22;11110;52.386;16.940;2024-02-23T08:38:44;24.30;36.90
21891;DHT22;11110;52.386;16.940;2024-02-23T08:41:12;24.30;37.00
21891;DHT22;11110;52.386;16.940;2024-02-23T08:43:42;24.30;37.00
21891;DHT22;11110;52.386;16.940;2024-02-23T08:46:10;24.40;37.00
21891;DHT22;11110;52.386;16.940;2024-02-23T08:48:40;24.40;36.90
21891;DHT22;11110;52.386;16.940;2024-02-23T08:51:08;24.40;37.10
21891;DHT22;11110;52.386;16.940;2024-02-23T08:53:37;24.40;37.00
21891;DHT22;11110;52.386;16.940;2024-02-23T08:56:07;24.40;37.10
21891;DHT22;11110;52.386;16.940;2024-02-23T08:58:36;24.40;37.10
21891;DHT22;11110;52.386;16.940;2024-02-23T09:01:05;24.50;36.90
21891;DHT22;11110;52.386;16.940;2024-02-23T09:03:34;24.50;36.90
21891;DHT22;11110;52.386;16.940;2024-02-23T09:06:03;24.50;37.10
21891;DHT22;11110;52.386;16.940;2024-02-23T09:08:32;24.50;36.80
21891;DHT22;11110;52.386;16.940;2024-02-23T09:11:01;24.50;36.70
21891;DHT22;11110;52.386;16.940;2024-02-23T09:13:30;24.60;36.70
21891;DHT22;11110;52.386;16.940;2024-02-23T09:15:59;24.60;36.40
21891;DHT22;11110;52.386;16.940;2024-02-23T09:18:27;24.50;36.30
21891;DHT22;11110;52.386;16.940;2024-02-23T09:20:56;24.60;36.30
21891;DHT22;11110;52.386;16.940;2024-02-23T09:23:24;24.50;36.60
21891;DHT22;11110;52.386;16.940;2024-02-23T09:25:53;24.50;36.70
21891;DHT22;11110;52.386;16.940;2024-02-23T09:28:21;24.50;36.80
21891;DHT22;11110;52.386;16.940;2024-02-23T09:30:51;24.50;37.00
21891;DHT22;11110;52.386;16.940;2024-02-23T09:33:23;24.60;37.50
21891;DHT22;11110;52.386;16.940;2024-02-23T09:35:52;24.60;36.80
21891;DHT22;11110;52.386;16.940;2024-02-23T09:38:20;24.50;36.70
21891;DHT22;11110;52.386;16.940;2024-02-23T09:40:52;24.60;36.40
21891;DHT22;11110;52.386;16.940;2024-02-23T09:43:21;24.60;36.10
21891;DHT22;11110;52.386;16.940;2024-02-23T09:45:52;24.50;35.90
21891;DHT22;11110;52.386;16.940;2024-02-23T09:48:20;24.50;35.70
21891;DHT22;11110;52.386;16.940;2024-02-23T09:50:52;24.50;35.60
21891;DHT22;11110;52.386;16.940;2024-02-23T09:53:21;24.40;35.60
21891;DHT22;11110;52.386;16.940;2024-02-23T09:55:50;24.50;35.80
21891;DHT22;11110;52.386;16.940;2024-02-23T09:58:19;24.40;35.70
21891;DHT22;11110;52.386;16.940;2024-02-23T10:00:49;24.50;36.00
21891;DHT22;11110;52.386;16.940;2024-02-23T10:03:19;24.40;36.10
21891;DHT22;11110;52.386;16.940;2024-02-23T10:05:53;24.50;35.80
21891;DHT22;11110;52.386;16.940;2024-02-23T10:08:21;24.50;35.80
21891;DHT22;11110;52.386;16.940;2024-02-23T10:10:50;24.50;35.50
21891;DHT22;11110;52.386;16.940;2024-02-23T10:13:19;24.50;35.50
21891;DHT22;11110;52.386;16.940;2024-02-23T10:15:48;24.70;35.10
21891;DHT22;11110;52.386;16.940;2024-02-23T10:18:39;24.60;35.00
21891;DHT22;11110;52.386;16.940;2024-02-23T10:21:08;24.60;34.80
21891;DHT22;11110;52.386;16.940;2024-02-23T10:23:36;24.60;34.80
21891;DHT22;11110;52.386;16.940;2024-02-23T10:26:06;24.60;34.90
21891;DHT22;11110;52.386;16.940;2024-02-23T10:28:35;24.60;34.80
21891;DHT22;11110;52.386;16.940;2024-02-23T10:31:06;24.60;34.20
21891;DHT22;11110;52.386;16.940;2024-02-23T10:33:41;24.60;34.10
21891;DHT22;11110;52.386;16.940;2024-02-23T10:36:14;24.50;34.40
21891;DHT22;11110;52.386;16.940;2024-02-23T10:38:45;24.60;34.40
21891;DHT22;11110;52.386;16.940;2024-02-23T10:41:14;24.70;34.00
21891;DHT22;11110;52.386;16.940;2024-02-23T10:43:47;24.60;33.80
21891;DHT22;11110;52.386;16.940;2024-02-23T10:46:18;24.50;34.00
21891;DHT22;11110;52.386;16.940;2024-02-23T10:48:49;24.50;34.30
21891;DHT22;11110;52.386;16.940;2024-02-23T10:51:19;24.50;34.50
21891;DHT22;11110;52.386;16.940;2024-02-23T10:53:48;24.50;34.70
21891;DHT22;11110;52.386;16.940;2024-02-23T10:56:18;24.70;34.50
21891;DHT22;11110;52.386;16.940;2024-02-23T10:58:46;24.70;34.40
21891;DHT22;11110;52.386;16.940;2024-02-23T11:01:15;24.70;33.90
21891;DHT22;11110;52.386;16.940;2024-02-23T11:03:45;24.70;33.10
21891;DHT22;11110;52.386;16.940;2024-02-23T11:06:19;24.70;33.20
21891;DHT22;11110;52.386;16.940;2024-02-23T11:08:49;24.70;32.90
21891;DHT22;11110;52.386;16.940;2024-02-23T11:11:19;24.70;33.40
21891;DHT22;11110;52.386;16.940;2024-02-23T11:13:47;24.70;32.50
21891;DHT22;11110;52.386;16.940;2024-02-23T11:16:21;24.60;32.40
21891;DHT22;11110;52.386;16.940;2024-02-23T11:19:03;24.70;32.40
21891;DHT22;11110;52.386;16.940;2024-02-23T11:21:36;24.60;32.50
21891;DHT22;11110;52.386;16.940;2024-02-23T11:24:06;24.70;32.60
21891;DHT22;11110;52.386;16.940;2024-02-23T11:26:37;24.70;32.60
21891;DHT22;11110;52.386;16.940;2024-02-23T11:29:11;24.60;32.90
21891;DHT22;11110;52.386;16.940;2024-02-23T11:31:44;24.60;32.90
21891;DHT22;11110;52.386;16.940;2024-02-23T11:34:13;24.70;33.00
21891;DHT22;11110;52.386;16.940;2024-02-23T11:36:52;24.70;32.80
21891;DHT22;11110;52.386;16.940;2024-02-23T11:39:21;24.70;32.80
21891;DHT22;11110;52.386;16.940;2024-02-23T11:41:50;24.70;32.90
21891;DHT22;11110;52.386;16.940;2024-02-23T11:44:19;24.60;32.50
21891;DHT22;11110;52.386;16.940;2024-02-23T11:46:48;24.60;32.60
21891;DHT22;11110;52.386;16.940;2024-02-23T11:49:16;24.70;32.40
21891;DHT22;11110;52.386;16.940;2024-02-23T11:51:45;24.60;32.70
21891;DHT22;11110;52.386;16.940;2024-02-23T11:54:14;24.60;32.70
21891;DHT22;11110;52.386;16.940;2024-02-23T11:56:43;24.60;32.80
21891;DHT22;11110;52.386;16.940;2024-02-23T11:59:13;24.60;32.90
21891;DHT22;11110;52.386;16.940;2024-02-23T12:01:42;24.60;32.80
21891;DHT22;11110;52.386;16.940;2024-02-23T12:04:11;24.60;33.00
21891;DHT22;11110;52.386;16.940;2024-02-23T12:06:40;24.60;33.10
21891;DHT22;11110;52.386;16.940;2024-02-23T12:09:08;24.50;33.10
21891;DHT22;11110;52.386;16.940;2024-02-23T12:11:40;24.50;33.30
21891;DHT22;11110;52.386;16.940;2024-02-23T12:14:09;24.50;33.40
21891;DHT22;11110;52.386;16.940;2024-02-23T12:16:40;24.60;33.60
21891;DHT22;11110;52.386;16.940;2024-02-23T12:19:08;24.60;33.50
21891;DHT22;11110;52.386;16.940;2024-02-23T12:21:38;24.70;33.60
21891;DHT22;11110;52.386;16.940;2024-02-23T12:24:07;24.70;33.50
21891;DHT22;11110;52.386;16.940;2024-02-23T12:26:36;24.70;33.70
21891;DHT22;11110;52.386;16.940;2024-02-23T12:29:05;24.80;33.30
21891;DHT22;11110;52.386;16.940;2024-02-23T12:31:34;24.70;33.20
21891;DHT22;11110;52.386;16.940;2024-02-23T12:34:03;24.80;33.00
21891;DHT22;11110;52.386;16.940;2024-02-23T12:36:32;24.60;33.00
21891;DHT22;11110;52.386;16.940;2024-02-23T12:39:02;24.60;33.20
21891;DHT22;11110;52.386;16.940;2024-02-23T12:41:31;24.60;33.30
21891;DHT22;11110;52.386;16.940;2024-02-23T12:44:00;24.50;33.40
21891;DHT22;11110;52.386;16.940;2024-02-23T12:46:30;24.60;33.30
21891;DHT22;11110;52.386;16.940;2024-02-23T12:48:58;24.60;33.20
21891;DHT22;11110;52.386;16.940;2024-02-23T12:51:27;24.70;33.40
21891;DHT22;11110;52.386;16.940;2024-02-23T12:53:55;24.70;33.30
21891;DHT22;11110;52.386;16.940;2024-02-23T12:56:24;24.80;33.20
21891;DHT22;11110;52.386;16.940;2024-02-23T12:58:52;24.80;33.00
21891;DHT22;11110;52.386;16.940;2024-02-23T13:01:22;24.80;32.80
21891;DHT22;11110;52.386;16.940;2024-02-23T13:03:53;24.90;32.70
21891;DHT22;11110;52.386;16.940;2024-02-23T13:06:22;25.00;32.70
21891;DHT22;11110;52.386;16.940;2024-02-23T13:08:50;25.00;33.50
21891;DHT22;11110;52.386;16.940;2024-02-23T13:11:20;25.10;33.00
21891;DHT22;11110;52.386;16.940;2024-02-23T13:13:48;25.10;33.00
21891;DHT22;11110;52.386;16.940;2024-02-23T13:16:17;25.10;32.90
21891;DHT22;11110;52.386;16.940;2024-02-23T13:18:45;25.20;32.60
21891;DHT22;11110;52.386;16.940;2024-02-23T13:21:17;25.20;33.30
21891;DHT22;11110;52.386;16.940;2024-02-23T13:23:45;25.30;32.70
21891;DHT22;11110;52.386;16.940;2024-02-23T13:26:14;25.30;32.60
21891;DHT22;11110;52.386;16.940;2024-02-23T13:28:43;25.30;32.80
21891;DHT22;11110;52.386;16.940;2024-02-23T13:31:12;25.40;33.40
21891;DHT22;11110;52.386;16.940;2024-02-23T13:33:42;25.40;32.50
21891;DHT22;11110;52.386;16.940;2024-02-23T13:36:11;25.40;32.70
21891;DHT22;11110;52.386;16.940;2024-02-23T13:38:41;25.50;32.80
21891;DHT22;11110;52.386;16.940;2024-02-23T13:41:10;25.60;32.70
21891;DHT22;11110;52.386;16.940;2024-02-23T13:43:38;25.60;32.40
21891;DHT22;11110;52.386;16.940;2024-02-23T13:46:07;25.60;32.60
21891;DHT22;11110;52.386;16.940;2024-02-23T13:48:35;25.60;32.30
21891;DHT22;11110;52.386;16.940;2024-02-23T13:51:05;25.60;32.40
21891;DHT22;11110;52.386;16.940;2024-02-23T13:53:36;25.60;32.20
21891;DHT22;11110;52.386;16.940;2024-02-23T13:56:06;25.70;32.30
21891;DHT22;11110;52.386;16.940;2024-02-23T13:58:35;25.70;32.50
21891;DHT22;11110;52.386;16.940;2024-02-23T14:01:04;25.70;32.20
21891;DHT22;11110;52.386;16.940;2024-02-23T14:03:32;25.70;32.50
21891;DHT22;11110;52.386;16.940;2024-02-23T14:06:00;25.70;32.20
21891;DHT22;11110;52.386;16.940;2024-02-23T14:08:29;25.70;33.20
21891;DHT22;11110;52.386;16.940;2024-02-23T14:10:58;25.70;32.50
21891;DHT22;11110;52.386;16.940;2024-02-23T14:13:28;25.70;32.40
21891;DHT22;11110;52.386;16.940;2024-02-23T14:15:57;25.70;32.60
21891;DHT22;11110;52.386;16.940;2024-02-23T14:18:25;25.70;32.50
21891;DHT22;11110;52.386;16.940;2024-02-23T14:20:54;25.60;32.30
21891;DHT22;11110;52.386;16.940;2024-02-23T14:23:22;25.60;32.50
21891;DHT22;11110;52.386;16.940;2024-02-23T14:25:51;25.60;32.60
21891;DHT22;11110;52.386;16.940;2024-02-23T14:28:19;25.50;32.70
21891;DHT22;11110;52.386;16.940;2024-02-23T14:30:49;25.50;32.60
21891;DHT22;11110;52.386;16.940;2024-02-23T14:33:17;25.40;32.70
21891;DHT22;11110;52.386;16.940;2024-02-23T14:35:46;25.40;32.80
21891;DHT22;11110;52.386;16.940;2024-02-23T14:38:16;25.30;32.80
21891;DHT22;11110;52.386;16.940;2024-02-23T14:40:45;25.30;32.90
21891;DHT22;11110;52.386;16.940;2024-02-23T14:43:14;25.30;33.10
21891;DHT22;11110;52.386;16.940;2024-02-23T14:45:42;25.30;33.20
21891;DHT22;11110;52.386;16.940;2024-02-23T14:48:12;25.20;33.10
21891;DHT22;11110;52.386;16.940;2024-02-23T14:50:41;25.20;33.00
21891;DHT22;11110;52.386;16.940;2024-02-23T14:53:09;25.20;33.30
21891;DHT22;11110;52.386;16.940;2024-02-23T14:55:39;25.20;33.40
21891;DHT22;11110;52.386;16.940;2024-02-23T14:58:07;25.10;33.30
21891;DHT22;11110;52.386;16.940;2024-02-23T15:00:36;25.10;33.50
21891;DHT22;11110;52.386;16.940;2024-02-23T15:03:05;25.10;33.60
21891;DHT22;11110;52.386;16.940;2024-02-23T15:05:37;25.10;33.40
21891;DHT22;11110;52.386;16.940;2024-02-23T15:08:07;25.10;33.80
21891;DHT22;11110;52.386;16.940;2024-02-23T15:10:36;25.00;33.60
21891;DHT22;11110;52.386;16.940;2024-02-23T15:13:04;25.00;33.80
21891;DHT22;11110;52.386;16.940;2024-02-23T15:15:33;25.00;33.80
21891;DHT22;11110;52.386;16.940;2024-02-23T15:18:07;25.00;33.80
21891;DHT22;11110;52.386;16.940;2024-02-23T15:20:37;24.90;33.90
21891;DHT22;11110;52.386;16.940;2024-02-23T15:23:05;24.90;34.00
21891;DHT22;11110;52.386;16.940;2024-02-23T15:25:34;24.80;34.00
21891;DHT22;11110;52.386;16.940;2024-02-23T15:28:09;24.80;34.20